This is the latest recevied weather packets stored in our database for station/object IK2ILW-4. If no packets are shown the sender has not sent any weather packets the latest 10 day(s).
| Time | Temp. | Humidity | Pressure | Rain* | Wind** | Luminosity | Snow |
|---|---|---|---|---|---|---|---|
| 1787956659 | 17.22° C | 88% | 1019 hPa | 0 mm | - | 0 W/m² | - |
| 1787956372 | 17.22° C | 88% | 1019 hPa | 0 mm | - | 0 W/m² | - |
| 1787956066 | 17.78° C | 87% | 1018.6 hPa | 0 mm | - | 0 W/m² | - |
| 1787955763 | 17.78° C | 85% | 1018.6 hPa | 0 mm | - | 0 W/m² | - |
| 1787955472 | 18.89° C | 82% | 1018.6 hPa | 0 mm | - | 0 W/m² | - |
| 1787955166 | 18.89° C | 82% | 1018.5 hPa | 0 mm | - | 0 W/m² | - |
| 1787954856 | 18.89° C | 81% | 1018.5 hPa | 0 mm | - | 0 W/m² | - |
| 1787954561 | 18.89° C | 81% | 1018.5 hPa | 0 mm | - | 0 W/m² | - |
| 1787954259 | 18.33° C | 82% | 1019.1 hPa | 2.03 mm | - | 0 W/m² | - |
| 1787953956 | 17.78° C | 85% | 1019.1 hPa | 2.03 mm | - | 0 W/m² | - |
| 1787953664 | 18.33° C | 84% | 1019.1 hPa | 2.03 mm | - | 0 W/m² | - |
| 1787953362 | 18.89° C | 83% | 1018.9 hPa | 2.03 mm | - | 0 W/m² | - |
| 1787953059 | 18.89° C | 81% | 1018.9 hPa | 2.03 mm | - | 0 W/m² | - |
| 1787952757 | 18.89° C | 81% | 1018.9 hPa | 2.03 mm | - | 0 W/m² | - |
| 1787952456 | 18.33° C | 82% | 1018.8 hPa | 2.03 mm | - | 0 W/m² | - |
| 1787952169 | 18.89° C | 82% | 1018.8 hPa | 2.03 mm | - | 0 W/m² | - |
| 1787951860 | 19.44° C | 80% | 1018.8 hPa | 2.03 mm | - | 0 W/m² | - |
| 1787951554 | 18.89° C | 81% | 1018.8 hPa | 2.03 mm | - | 0 W/m² | - |
| 1787951268 | 18.33° C | 84% | 1018.8 hPa | 2.03 mm | - | 0 W/m² | - |
| 1787950954 | 17.78° C | 84% | 1018.8 hPa | 2.03 mm | - | 0 W/m² | - |
| 1787950661 | 18.89° C | 82% | 1019.2 hPa | 2.03 mm | - | 0 W/m² | - |
| 1787950357 | 18.33° C | 84% | 1019.2 hPa | 2.03 mm | - | 0 W/m² | - |
| 1787950071 | 17.22° C | 87% | 1019.2 hPa | 2.03 mm | - | 0 W/m² | - |
| 1787949755 | 17.78° C | 84% | 1019.5 hPa | 2.03 mm | - | 0 W/m² | - |
| 1787949455 | 18.33° C | 83% | 1019.5 hPa | 2.03 mm | - | 0 W/m² | - |
* Rain since midnight (hover to see other rain measurements)
** Current wind speed in m/s (hover to see current wind gust speed)